sensor_id;sensor_type;location;lat;lon;timestamp;P1;durP1;ratioP1;P2;durP2;ratioP2
75634;SDS011;64227;48.724;9.104;2022-12-08T00:01:08;4.63;;;2.72;;
75634;SDS011;64227;48.724;9.104;2022-12-08T00:03:34;3.95;;;2.58;;
75634;SDS011;64227;48.724;9.104;2022-12-08T00:06:01;5.15;;;2.70;;
75634;SDS011;64227;48.724;9.104;2022-12-08T00:08:46;5.32;;;2.95;;
75634;SDS011;64227;48.724;9.104;2022-12-08T00:11:29;3.97;;;2.42;;
75634;SDS011;64227;48.724;9.104;2022-12-08T00:13:55;4.18;;;3.05;;
75634;SDS011;64227;48.724;9.104;2022-12-08T00:16:20;5.70;;;2.67;;
75634;SDS011;64227;48.724;9.104;2022-12-08T00:18:46;4.53;;;2.63;;
75634;SDS011;64227;48.724;9.104;2022-12-08T00:21:11;2.65;;;2.00;;
75634;SDS011;64227;48.724;9.104;2022-12-08T00:23:36;3.22;;;1.98;;
75634;SDS011;64227;48.724;9.104;2022-12-08T00:26:02;2.72;;;1.52;;
75634;SDS011;64227;48.724;9.104;2022-12-08T00:28:28;2.60;;;1.67;;
75634;SDS011;64227;48.724;9.104;2022-12-08T00:30:54;3.05;;;1.75;;
75634;SDS011;64227;48.724;9.104;2022-12-08T00:33:19;2.67;;;1.23;;
75634;SDS011;64227;48.724;9.104;2022-12-08T00:35:44;2.85;;;1.45;;
75634;SDS011;64227;48.724;9.104;2022-12-08T00:38:10;2.17;;;1.20;;
75634;SDS011;64227;48.724;9.104;2022-12-08T00:40:35;2.65;;;1.75;;
75634;SDS011;64227;48.724;9.104;2022-12-08T00:43:00;2.20;;;1.23;;
75634;SDS011;64227;48.724;9.104;2022-12-08T00:45:25;1.97;;;1.33;;
75634;SDS011;64227;48.724;9.104;2022-12-08T00:47:51;2.00;;;1.33;;
75634;SDS011;64227;48.724;9.104;2022-12-08T00:50:16;3.53;;;1.80;;
75634;SDS011;64227;48.724;9.104;2022-12-08T00:52:41;1.60;;;1.38;;
75634;SDS011;64227;48.724;9.104;2022-12-08T00:55:07;3.08;;;1.50;;
75634;SDS011;64227;48.724;9.104;2022-12-08T00:57:33;2.80;;;1.60;;
75634;SDS011;64227;48.724;9.104;2022-12-08T00:59:58;2.63;;;1.50;;
75634;SDS011;64227;48.724;9.104;2022-12-08T01:02:23;2.83;;;1.60;;
75634;SDS011;64227;48.724;9.104;2022-12-08T01:04:48;2.60;;;1.80;;
75634;SDS011;64227;48.724;9.104;2022-12-08T01:07:14;6.13;;;2.72;;
75634;SDS011;64227;48.724;9.104;2022-12-08T01:09:39;4.72;;;2.40;;
75634;SDS011;64227;48.724;9.104;2022-12-08T01:12:05;4.13;;;2.10;;
75634;SDS011;64227;48.724;9.104;2022-12-08T01:14:30;5.68;;;2.65;;
75634;SDS011;64227;48.724;9.104;2022-12-08T01:16:56;5.38;;;3.08;;
75634;SDS011;64227;48.724;9.104;2022-12-08T01:19:21;5.72;;;2.75;;
75634;SDS011;64227;48.724;9.104;2022-12-08T01:21:46;4.78;;;2.35;;
75634;SDS011;64227;48.724;9.104;2022-12-08T01:24:16;6.22;;;2.20;;
75634;SDS011;64227;48.724;9.104;2022-12-08T01:26:43;3.13;;;1.75;;
75634;SDS011;64227;48.724;9.104;2022-12-08T01:29:09;3.58;;;1.90;;
75634;SDS011;64227;48.724;9.104;2022-12-08T01:31:34;3.40;;;1.70;;
75634;SDS011;64227;48.724;9.104;2022-12-08T01:33:59;3.47;;;1.70;;
75634;SDS011;64227;48.724;9.104;2022-12-08T01:36:26;3.20;;;1.65;;
75634;SDS011;64227;48.724;9.104;2022-12-08T01:38:53;3.72;;;2.05;;
75634;SDS011;64227;48.724;9.104;2022-12-08T01:41:21;3.22;;;2.30;;
75634;SDS011;64227;48.724;9.104;2022-12-08T01:43:58;3.28;;;2.00;;
75634;SDS011;64227;48.724;9.104;2022-12-08T01:46:32;3.33;;;1.70;;
75634;SDS011;64227;48.724;9.104;2022-12-08T01:49:00;4.18;;;1.90;;
75634;SDS011;64227;48.724;9.104;2022-12-08T01:51:28;4.03;;;2.10;;
75634;SDS011;64227;48.724;9.104;2022-12-08T01:53:55;3.38;;;2.33;;
75634;SDS011;64227;48.724;9.104;2022-12-08T01:56:40;4.43;;;2.72;;
75634;SDS011;64227;48.724;9.104;2022-12-08T01:59:22;4.43;;;2.42;;
75634;SDS011;64227;48.724;9.104;2022-12-08T02:01:48;5.20;;;2.90;;
75634;SDS011;64227;48.724;9.104;2022-12-08T02:04:13;3.87;;;2.13;;
75634;SDS011;64227;48.724;9.104;2022-12-08T02:06:39;6.03;;;2.75;;
75634;SDS011;64227;48.724;9.104;2022-12-08T02:09:06;5.32;;;3.00;;
75634;SDS011;64227;48.724;9.104;2022-12-08T02:11:32;5.25;;;2.90;;
75634;SDS011;64227;48.724;9.104;2022-12-08T02:13:57;5.05;;;2.22;;
75634;SDS011;64227;48.724;9.104;2022-12-08T02:39:17;4.30;;;2.10;;
75634;SDS011;64227;48.724;9.104;2022-12-08T02:42:04;2.83;;;1.55;;
75634;SDS011;64227;48.724;9.104;2022-12-08T02:44:39;2.90;;;1.45;;
75634;SDS011;64227;48.724;9.104;2022-12-08T02:47:09;4.72;;;2.20;;
75634;SDS011;64227;48.724;9.104;2022-12-08T02:49:36;5.22;;;2.67;;
75634;SDS011;64227;48.724;9.104;2022-12-08T02:52:47;2.92;;;2.05;;
75634;SDS011;64227;48.724;9.104;2022-12-08T02:55:36;2.70;;;1.73;;
75634;SDS011;64227;48.724;9.104;2022-12-08T03:00:17;4.45;;;2.80;;
75634;SDS011;64227;48.724;9.104;2022-12-08T03:05:21;5.22;;;2.78;;
75634;SDS011;64227;48.724;9.104;2022-12-08T03:10:26;6.60;;;3.30;;
75634;SDS011;64227;48.724;9.104;2022-12-08T03:13:09;6.35;;;2.42;;
75634;SDS011;64227;48.724;9.104;2022-12-08T03:15:36;4.47;;;2.83;;
75634;SDS011;64227;48.724;9.104;2022-12-08T03:18:03;4.80;;;2.38;;
75634;SDS011;64227;48.724;9.104;2022-12-08T03:20:29;4.63;;;2.30;;
75634;SDS011;64227;48.724;9.104;2022-12-08T03:22:57;6.05;;;2.35;;
75634;SDS011;64227;48.724;9.104;2022-12-08T03:25:27;3.25;;;2.40;;
75634;SDS011;64227;48.724;9.104;2022-12-08T03:27:55;3.80;;;2.42;;
75634;SDS011;64227;48.724;9.104;2022-12-08T03:30:20;2.53;;;1.85;;
75634;SDS011;64227;48.724;9.104;2022-12-08T03:32:51;3.15;;;1.63;;
75634;SDS011;64227;48.724;9.104;2022-12-08T03:35:21;3.47;;;1.50;;
75634;SDS011;64227;48.724;9.104;2022-12-08T03:37:48;4.10;;;1.55;;
75634;SDS011;64227;48.724;9.104;2022-12-08T03:40:14;3.35;;;1.77;;
75634;SDS011;64227;48.724;9.104;2022-12-08T03:42:41;2.00;;;1.40;;
75634;SDS011;64227;48.724;9.104;2022-12-08T03:45:07;2.95;;;1.52;;
75634;SDS011;64227;48.724;9.104;2022-12-08T03:47:33;2.17;;;1.50;;
75634;SDS011;64227;48.724;9.104;2022-12-08T03:49:58;3.35;;;2.47;;
75634;SDS011;64227;48.724;9.104;2022-12-08T03:52:23;4.00;;;2.45;;
75634;SDS011;64227;48.724;9.104;2022-12-08T03:54:49;5.20;;;2.72;;
75634;SDS011;64227;48.724;9.104;2022-12-08T03:57:14;3.50;;;1.92;;
75634;SDS011;64227;48.724;9.104;2022-12-08T03:59:39;3.65;;;1.63;;
75634;SDS011;64227;48.724;9.104;2022-12-08T04:02:04;3.15;;;1.92;;
75634;SDS011;64227;48.724;9.104;2022-12-08T04:04:31;4.70;;;1.98;;
75634;SDS011;64227;48.724;9.104;2022-12-08T04:06:56;4.00;;;2.33;;
75634;SDS011;64227;48.724;9.104;2022-12-08T04:09:22;2.00;;;1.33;;
75634;SDS011;64227;48.724;9.104;2022-12-08T04:11:47;2.85;;;1.67;;
75634;SDS011;64227;48.724;9.104;2022-12-08T04:14:13;3.17;;;1.50;;
75634;SDS011;64227;48.724;9.104;2022-12-08T04:16:38;3.88;;;1.95;;
75634;SDS011;64227;48.724;9.104;2022-12-08T04:19:04;3.13;;;1.67;;
75634;SDS011;64227;48.724;9.104;2022-12-08T04:21:29;2.28;;;1.25;;
75634;SDS011;64227;48.724;9.104;2022-12-08T04:23:54;2.13;;;1.30;;
75634;SDS011;64227;48.724;9.104;2022-12-08T04:26:20;5.82;;;2.17;;
75634;SDS011;64227;48.724;9.104;2022-12-08T04:28:45;2.83;;;1.40;;
75634;SDS011;64227;48.724;9.104;2022-12-08T04:31:10;3.63;;;1.50;;
75634;SDS011;64227;48.724;9.104;2022-12-08T04:33:36;3.20;;;1.92;;
75634;SDS011;64227;48.724;9.104;2022-12-08T04:36:04;3.42;;;1.60;;
75634;SDS011;64227;48.724;9.104;2022-12-08T04:38:30;1.85;;;1.25;;
75634;SDS011;64227;48.724;9.104;2022-12-08T04:40:56;2.35;;;1.20;;
75634;SDS011;64227;48.724;9.104;2022-12-08T04:43:21;3.10;;;1.40;;
75634;SDS011;64227;48.724;9.104;2022-12-08T04:45:47;2.65;;;1.55;;
75634;SDS011;64227;48.724;9.104;2022-12-08T04:48:12;3.10;;;1.73;;
75634;SDS011;64227;48.724;9.104;2022-12-08T04:50:39;3.58;;;1.70;;
75634;SDS011;64227;48.724;9.104;2022-12-08T04:53:06;3.15;;;1.45;;
75634;SDS011;64227;48.724;9.104;2022-12-08T04:55:32;2.67;;;1.42;;
75634;SDS011;64227;48.724;9.104;2022-12-08T04:57:57;4.30;;;1.90;;
75634;SDS011;64227;48.724;9.104;2022-12-08T05:00:22;4.63;;;2.17;;
75634;SDS011;64227;48.724;9.104;2022-12-08T05:02:47;10.23;;;3.90;;
75634;SDS011;64227;48.724;9.104;2022-12-08T05:05:13;12.20;;;6.22;;
75634;SDS011;64227;48.724;9.104;2022-12-08T05:07:38;12.43;;;5.43;;
75634;SDS011;64227;48.724;9.104;2022-12-08T05:10:04;8.73;;;4.10;;
75634;SDS011;64227;48.724;9.104;2022-12-08T05:12:29;6.20;;;3.20;;
75634;SDS011;64227;48.724;9.104;2022-12-08T05:14:55;10.77;;;4.65;;
75634;SDS011;64227;48.724;9.104;2022-12-08T05:17:20;11.23;;;4.93;;
75634;SDS011;64227;48.724;9.104;2022-12-08T05:19:45;10.07;;;4.47;;
75634;SDS011;64227;48.724;9.104;2022-12-08T05:22:10;9.73;;;5.40;;
75634;SDS011;64227;48.724;9.104;2022-12-08T05:24:36;7.35;;;4.20;;
75634;SDS011;64227;48.724;9.104;2022-12-08T05:27:02;9.88;;;5.88;;
75634;SDS011;64227;48.724;9.104;2022-12-08T05:29:27;8.63;;;4.55;;
75634;SDS011;64227;48.724;9.104;2022-12-08T05:31:53;7.70;;;4.57;;
75634;SDS011;64227;48.724;9.104;2022-12-08T05:34:18;9.07;;;4.50;;
75634;SDS011;64227;48.724;9.104;2022-12-08T05:36:43;8.98;;;4.85;;
75634;SDS011;64227;48.724;9.104;2022-12-08T05:39:12;7.15;;;3.85;;
75634;SDS011;64227;48.724;9.104;2022-12-08T05:41:38;9.30;;;5.18;;
75634;SDS011;64227;48.724;9.104;2022-12-08T05:44:03;11.68;;;6.13;;
75634;SDS011;64227;48.724;9.104;2022-12-08T05:46:29;8.02;;;4.68;;
75634;SDS011;64227;48.724;9.104;2022-12-08T05:48:54;6.88;;;3.70;;
75634;SDS011;64227;48.724;9.104;2022-12-08T05:51:21;6.88;;;4.30;;
75634;SDS011;64227;48.724;9.104;2022-12-08T05:53:48;5.95;;;3.35;;
75634;SDS011;64227;48.724;9.104;2022-12-08T05:56:14;6.93;;;4.10;;
75634;SDS011;64227;48.724;9.104;2022-12-08T05:58:39;7.57;;;4.38;;
75634;SDS011;64227;48.724;9.104;2022-12-08T06:01:04;8.48;;;5.22;;
75634;SDS011;64227;48.724;9.104;2022-12-08T06:03:30;6.20;;;4.22;;
75634;SDS011;64227;48.724;9.104;2022-12-08T06:05:55;5.78;;;3.63;;
75634;SDS011;64227;48.724;9.104;2022-12-08T06:08:20;5.25;;;2.92;;
75634;SDS011;64227;48.724;9.104;2022-12-08T06:10:46;5.00;;;2.90;;
75634;SDS011;64227;48.724;9.104;2022-12-08T06:13:11;3.38;;;2.08;;
75634;SDS011;64227;48.724;9.104;2022-12-08T06:18:04;3.40;;;1.92;;
75634;SDS011;64227;48.724;9.104;2022-12-08T06:20:30;2.72;;;2.05;;
75634;SDS011;64227;48.724;9.104;2022-12-08T06:22:55;4.30;;;1.98;;
75634;SDS011;64227;48.724;9.104;2022-12-08T06:25:21;2.78;;;1.95;;
75634;SDS011;64227;48.724;9.104;2022-12-08T06:27:47;2.55;;;1.38;;
75634;SDS011;64227;48.724;9.104;2022-12-08T06:30:12;2.58;;;1.58;;
75634;SDS011;64227;48.724;9.104;2022-12-08T06:32:38;4.18;;;2.20;;
75634;SDS011;64227;48.724;9.104;2022-12-08T06:35:03;3.42;;;1.63;;
75634;SDS011;64227;48.724;9.104;2022-12-08T06:37:29;2.55;;;1.48;;
75634;SDS011;64227;48.724;9.104;2022-12-08T06:39:55;4.18;;;1.67;;
75634;SDS011;64227;48.724;9.104;2022-12-08T06:42:20;1.73;;;1.10;;
75634;SDS011;64227;48.724;9.104;2022-12-08T06:45:05;1.95;;;1.40;;
75634;SDS011;64227;48.724;9.104;2022-12-08T06:47:30;2.90;;;1.45;;
75634;SDS011;64227;48.724;9.104;2022-12-08T06:49:56;3.35;;;1.83;;
75634;SDS011;64227;48.724;9.104;2022-12-08T06:52:21;2.08;;;1.42;;
75634;SDS011;64227;48.724;9.104;2022-12-08T06:54:46;1.73;;;1.13;;
75634;SDS011;64227;48.724;9.104;2022-12-08T06:57:12;2.88;;;1.85;;
75634;SDS011;64227;48.724;9.104;2022-12-08T06:59:37;1.58;;;0.93;;
75634;SDS011;64227;48.724;9.104;2022-12-08T07:02:03;2.40;;;1.65;;
75634;SDS011;64227;48.724;9.104;2022-12-08T07:04:28;3.10;;;1.45;;
75634;SDS011;64227;48.724;9.104;2022-12-08T07:06:53;1.92;;;1.13;;
75634;SDS011;64227;48.724;9.104;2022-12-08T07:09:19;1.73;;;1.13;;
75634;SDS011;64227;48.724;9.104;2022-12-08T07:11:44;2.50;;;1.40;;
75634;SDS011;64227;48.724;9.104;2022-12-08T07:14:09;3.13;;;1.33;;
75634;SDS011;64227;48.724;9.104;2022-12-08T07:16:35;1.55;;;0.93;;
75634;SDS011;64227;48.724;9.104;2022-12-08T07:19:00;1.38;;;0.98;;
75634;SDS011;64227;48.724;9.104;2022-12-08T07:21:26;4.65;;;1.23;;
75634;SDS011;64227;48.724;9.104;2022-12-08T07:23:51;2.58;;;1.50;;
75634;SDS011;64227;48.724;9.104;2022-12-08T07:26:16;1.35;;;1.15;;
75634;SDS011;64227;48.724;9.104;2022-12-08T07:28:42;3.95;;;1.67;;
75634;SDS011;64227;48.724;9.104;2022-12-08T07:31:14;1.65;;;1.15;;
75634;SDS011;64227;48.724;9.104;2022-12-08T07:33:41;5.15;;;1.60;;
75634;SDS011;64227;48.724;9.104;2022-12-08T07:36:07;3.13;;;1.45;;
75634;SDS011;64227;48.724;9.104;2022-12-08T07:38:32;1.73;;;1.17;;
75634;SDS011;64227;48.724;9.104;2022-12-08T07:40:58;2.05;;;1.23;;
75634;SDS011;64227;48.724;9.104;2022-12-08T07:43:23;3.95;;;1.75;;
75634;SDS011;64227;48.724;9.104;2022-12-08T07:45:49;3.65;;;1.80;;
75634;SDS011;64227;48.724;9.104;2022-12-08T07:48:15;2.55;;;1.85;;
75634;SDS011;64227;48.724;9.104;2022-12-08T07:50:41;4.55;;;2.25;;
75634;SDS011;64227;48.724;9.104;2022-12-08T07:53:06;3.83;;;1.90;;
75634;SDS011;64227;48.724;9.104;2022-12-08T07:55:31;5.18;;;1.83;;
75634;SDS011;64227;48.724;9.104;2022-12-08T07:57:57;4.10;;;2.05;;
75634;SDS011;64227;48.724;9.104;2022-12-08T08:00:22;3.83;;;2.22;;
75634;SDS011;64227;48.724;9.104;2022-12-08T08:02:47;3.88;;;2.00;;
75634;SDS011;64227;48.724;9.104;2022-12-08T08:05:13;5.00;;;2.65;;
75634;SDS011;64227;48.724;9.104;2022-12-08T08:07:38;4.20;;;2.22;;
75634;SDS011;64227;48.724;9.104;2022-12-08T08:10:07;4.43;;;2.30;;
75634;SDS011;64227;48.724;9.104;2022-12-08T08:12:33;7.72;;;3.58;;
75634;SDS011;64227;48.724;9.104;2022-12-08T08:14:59;4.97;;;2.38;;
75634;SDS011;64227;48.724;9.104;2022-12-08T08:17:25;4.18;;;2.33;;
75634;SDS011;64227;48.724;9.104;2022-12-08T08:19:50;4.53;;;2.45;;
75634;SDS011;64227;48.724;9.104;2022-12-08T08:22:15;5.68;;;2.38;;
75634;SDS011;64227;48.724;9.104;2022-12-08T08:24:41;7.00;;;3.45;;
75634;SDS011;64227;48.724;9.104;2022-12-08T08:27:06;11.77;;;4.57;;
75634;SDS011;64227;48.724;9.104;2022-12-08T08:29:31;7.68;;;3.80;;
75634;SDS011;64227;48.724;9.104;2022-12-08T08:31:57;7.40;;;3.67;;
75634;SDS011;64227;48.724;9.104;2022-12-08T08:34:22;8.48;;;3.60;;
75634;SDS011;64227;48.724;9.104;2022-12-08T08:36:47;8.50;;;3.38;;
75634;SDS011;64227;48.724;9.104;2022-12-08T08:39:13;7.75;;;3.28;;
75634;SDS011;64227;48.724;9.104;2022-12-08T08:41:38;8.00;;;3.50;;
75634;SDS011;64227;48.724;9.104;2022-12-08T08:44:03;5.88;;;3.35;;
75634;SDS011;64227;48.724;9.104;2022-12-08T08:46:29;4.68;;;2.63;;
75634;SDS011;64227;48.724;9.104;2022-12-08T08:48:54;6.22;;;3.00;;
75634;SDS011;64227;48.724;9.104;2022-12-08T08:51:20;6.03;;;3.17;;
75634;SDS011;64227;48.724;9.104;2022-12-08T08:53:45;8.20;;;3.00;;
75634;SDS011;64227;48.724;9.104;2022-12-08T08:56:11;4.00;;;2.45;;
75634;SDS011;64227;48.724;9.104;2022-12-08T08:58:38;4.85;;;2.08;;
75634;SDS011;64227;48.724;9.104;2022-12-08T09:01:03;4.60;;;2.40;;
75634;SDS011;64227;48.724;9.104;2022-12-08T09:03:29;4.82;;;2.63;;
75634;SDS011;64227;48.724;9.104;2022-12-08T09:05:54;3.15;;;2.10;;
75634;SDS011;64227;48.724;9.104;2022-12-08T09:08:20;3.58;;;2.22;;
75634;SDS011;64227;48.724;9.104;2022-12-08T09:10:46;5.53;;;2.72;;
75634;SDS011;64227;48.724;9.104;2022-12-08T09:13:11;5.82;;;3.78;;
75634;SDS011;64227;48.724;9.104;2022-12-08T09:15:36;8.18;;;3.45;;
75634;SDS011;64227;48.724;9.104;2022-12-08T09:18:02;5.45;;;3.15;;
75634;SDS011;64227;48.724;9.104;2022-12-08T09:20:27;5.40;;;3.17;;
75634;SDS011;64227;48.724;9.104;2022-12-08T09:22:52;5.95;;;3.08;;
75634;SDS011;64227;48.724;9.104;2022-12-08T09:25:18;5.78;;;3.35;;
75634;SDS011;64227;48.724;9.104;2022-12-08T09:27:43;7.03;;;3.30;;
75634;SDS011;64227;48.724;9.104;2022-12-08T09:30:08;6.57;;;4.25;;
75634;SDS011;64227;48.724;9.104;2022-12-08T09:32:34;7.15;;;3.75;;
75634;SDS011;64227;48.724;9.104;2022-12-08T09:34:59;5.60;;;3.42;;
75634;SDS011;64227;48.724;9.104;2022-12-08T09:37:25;7.25;;;4.40;;
75634;SDS011;64227;48.724;9.104;2022-12-08T09:39:50;5.55;;;3.38;;
75634;SDS011;64227;48.724;9.104;2022-12-08T09:42:17;6.80;;;3.58;;
75634;SDS011;64227;48.724;9.104;2022-12-08T09:44:54;4.13;;;3.05;;
75634;SDS011;64227;48.724;9.104;2022-12-08T09:47:28;4.85;;;3.72;;
75634;SDS011;64227;48.724;9.104;2022-12-08T09:50:04;8.45;;;3.70;;
75634;SDS011;64227;48.724;9.104;2022-12-08T09:52:42;5.57;;;3.70;;
75634;SDS011;64227;48.724;9.104;2022-12-08T09:55:18;7.65;;;4.22;;
75634;SDS011;64227;48.724;9.104;2022-12-08T09:57:48;6.88;;;3.65;;
75634;SDS011;64227;48.724;9.104;2022-12-08T10:00:19;9.48;;;3.67;;
75634;SDS011;64227;48.724;9.104;2022-12-08T10:02:45;5.55;;;2.95;;
75634;SDS011;64227;48.724;9.104;2022-12-08T10:05:11;5.68;;;3.40;;
75634;SDS011;64227;48.724;9.104;2022-12-08T10:07:42;6.25;;;3.60;;
75634;SDS011;64227;48.724;9.104;2022-12-08T10:12:53;6.20;;;3.55;;
75634;SDS011;64227;48.724;9.104;2022-12-08T10:15:41;6.80;;;3.50;;
75634;SDS011;64227;48.724;9.104;2022-12-08T10:18:13;5.03;;;3.10;;
75634;SDS011;64227;48.724;9.104;2022-12-08T10:28:26;6.35;;;3.38;;
75634;SDS011;64227;48.724;9.104;2022-12-08T10:30:51;5.88;;;3.10;;
75634;SDS011;64227;48.724;9.104;2022-12-08T10:33:17;4.68;;;2.92;;
75634;SDS011;64227;48.724;9.104;2022-12-08T10:35:48;5.13;;;3.10;;
75634;SDS011;64227;48.724;9.104;2022-12-08T10:38:16;5.28;;;2.75;;
75634;SDS011;64227;48.724;9.104;2022-12-08T10:40:42;4.35;;;2.75;;
75634;SDS011;64227;48.724;9.104;2022-12-08T10:43:11;4.70;;;2.50;;
75634;SDS011;64227;48.724;9.104;2022-12-08T10:45:39;3.78;;;1.77;;
75634;SDS011;64227;48.724;9.104;2022-12-08T10:48:24;3.65;;;2.30;;
75634;SDS011;64227;48.724;9.104;2022-12-08T10:50:53;4.78;;;2.35;;
75634;SDS011;64227;48.724;9.104;2022-12-08T10:53:29;6.35;;;3.47;;
75634;SDS011;64227;48.724;9.104;2022-12-08T10:56:05;3.65;;;2.53;;
75634;SDS011;64227;48.724;9.104;2022-12-08T10:58:36;4.80;;;3.13;;
75634;SDS011;64227;48.724;9.104;2022-12-08T11:03:34;5.18;;;2.70;;
75634;SDS011;64227;48.724;9.104;2022-12-08T11:06:08;3.22;;;2.17;;
75634;SDS011;64227;48.724;9.104;2022-12-08T11:08:43;3.53;;;2.50;;
75634;SDS011;64227;48.724;9.104;2022-12-08T11:17:13;3.50;;;2.30;;
75634;SDS011;64227;48.724;9.104;2022-12-08T11:19:42;4.35;;;2.50;;
75634;SDS011;64227;48.724;9.104;2022-12-08T11:22:21;4.60;;;2.55;;
75634;SDS011;64227;48.724;9.104;2022-12-08T11:24:58;3.38;;;2.15;;
75634;SDS011;64227;48.724;9.104;2022-12-08T11:27:23;2.53;;;1.45;;
75634;SDS011;64227;48.724;9.104;2022-12-08T11:29:49;3.85;;;2.50;;
75634;SDS011;64227;48.724;9.104;2022-12-08T11:32:14;3.05;;;2.30;;
75634;SDS011;64227;48.724;9.104;2022-12-08T11:37:39;3.88;;;2.47;;
75634;SDS011;64227;48.724;9.104;2022-12-08T11:40:14;2.92;;;2.17;;
75634;SDS011;64227;48.724;9.104;2022-12-08T11:43:25;3.67;;;1.95;;
75634;SDS011;64227;48.724;9.104;2022-12-08T11:45:45;5.32;;;2.67;;
75634;SDS011;64227;48.724;9.104;2022-12-08T11:48:18;3.20;;;2.25;;
75634;SDS011;64227;48.724;9.104;2022-12-08T11:50:50;3.70;;;1.95;;
75634;SDS011;64227;48.724;9.104;2022-12-08T11:53:26;5.50;;;2.63;;
75634;SDS011;64227;48.724;9.104;2022-12-08T11:56:05;3.88;;;2.58;;
75634;SDS011;64227;48.724;9.104;2022-12-08T11:58:46;4.05;;;2.67;;
75634;SDS011;64227;48.724;9.104;2022-12-08T12:01:17;4.18;;;2.50;;
75634;SDS011;64227;48.724;9.104;2022-12-08T12:03:47;3.28;;;2.22;;
75634;SDS011;64227;48.724;9.104;2022-12-08T12:09:12;2.67;;;1.85;;
75634;SDS011;64227;48.724;9.104;2022-12-08T12:20:01;3.28;;;2.20;;
75634;SDS011;64227;48.724;9.104;2022-12-08T12:22:30;2.97;;;1.95;;
75634;SDS011;64227;48.724;9.104;2022-12-08T12:24:57;3.33;;;2.15;;
75634;SDS011;64227;48.724;9.104;2022-12-08T12:29:53;4.07;;;2.30;;
75634;SDS011;64227;48.724;9.104;2022-12-08T12:32:22;5.00;;;2.40;;
75634;SDS011;64227;48.724;9.104;2022-12-08T12:34:49;3.25;;;2.20;;
75634;SDS011;64227;48.724;9.104;2022-12-08T12:37:18;2.80;;;2.25;;
75634;SDS011;64227;48.724;9.104;2022-12-08T12:47:46;2.28;;;1.63;;
75634;SDS011;64227;48.724;9.104;2022-12-08T12:52:58;3.80;;;2.42;;
75634;SDS011;64227;48.724;9.104;2022-12-08T12:55:25;4.63;;;2.42;;
75634;SDS011;64227;48.724;9.104;2022-12-08T12:58:02;3.65;;;2.42;;
75634;SDS011;64227;48.724;9.104;2022-12-08T13:00:27;4.70;;;2.70;;
75634;SDS011;64227;48.724;9.104;2022-12-08T13:02:53;4.25;;;2.65;;
75634;SDS011;64227;48.724;9.104;2022-12-08T13:05:24;3.67;;;2.30;;
75634;SDS011;64227;48.724;9.104;2022-12-08T13:08:04;3.40;;;2.20;;
75634;SDS011;64227;48.724;9.104;2022-12-08T13:10:32;3.60;;;2.20;;
75634;SDS011;64227;48.724;9.104;2022-12-08T13:15:34;3.53;;;2.40;;
75634;SDS011;64227;48.724;9.104;2022-12-08T13:18:22;2.80;;;1.58;;
75634;SDS011;64227;48.724;9.104;2022-12-08T13:26:08;4.43;;;2.78;;
75634;SDS011;64227;48.724;9.104;2022-12-08T13:31:38;3.88;;;2.03;;
75634;SDS011;64227;48.724;9.104;2022-12-08T13:34:05;3.28;;;2.20;;
75634;SDS011;64227;48.724;9.104;2022-12-08T13:36:32;3.92;;;2.50;;
75634;SDS011;64227;48.724;9.104;2022-12-08T13:39:02;3.03;;;1.85;;
75634;SDS011;64227;48.724;9.104;2022-12-08T13:41:36;5.05;;;2.53;;
75634;SDS011;64227;48.724;9.104;2022-12-08T13:44:22;2.72;;;1.98;;
75634;SDS011;64227;48.724;9.104;2022-12-08T13:46:52;2.92;;;1.98;;
75634;SDS011;64227;48.724;9.104;2022-12-08T13:49:24;3.00;;;2.10;;
75634;SDS011;64227;48.724;9.104;2022-12-08T13:51:56;3.22;;;2.13;;
75634;SDS011;64227;48.724;9.104;2022-12-08T13:54:35;4.82;;;2.47;;
75634;SDS011;64227;48.724;9.104;2022-12-08T13:59:31;3.28;;;2.20;;
75634;SDS011;64227;48.724;9.104;2022-12-08T14:02:00;3.72;;;2.10;;
75634;SDS011;64227;48.724;9.104;2022-12-08T14:04:28;4.63;;;2.70;;
75634;SDS011;64227;48.724;9.104;2022-12-08T14:06:56;3.30;;;2.17;;
75634;SDS011;64227;48.724;9.104;2022-12-08T14:09:24;3.92;;;2.20;;
75634;SDS011;64227;48.724;9.104;2022-12-08T14:11:59;4.00;;;2.47;;
75634;SDS011;64227;48.724;9.104;2022-12-08T14:14:40;3.45;;;2.70;;
75634;SDS011;64227;48.724;9.104;2022-12-08T14:17:09;4.40;;;2.67;;
75634;SDS011;64227;48.724;9.104;2022-12-08T14:19:36;4.80;;;2.75;;
75634;SDS011;64227;48.724;9.104;2022-12-08T14:22:08;5.80;;;2.67;;
75634;SDS011;64227;48.724;9.104;2022-12-08T14:24:38;5.13;;;2.53;;
75634;SDS011;64227;48.724;9.104;2022-12-08T14:27:05;4.50;;;2.42;;
75634;SDS011;64227;48.724;9.104;2022-12-08T14:34:56;2.33;;;1.67;;
75634;SDS011;64227;48.724;9.104;2022-12-08T14:37:31;2.85;;;1.73;;
75634;SDS011;64227;48.724;9.104;2022-12-08T14:39:59;2.97;;;1.67;;
75634;SDS011;64227;48.724;9.104;2022-12-08T14:42:42;4.32;;;2.05;;
75634;SDS011;64227;48.724;9.104;2022-12-08T14:45:12;2.75;;;1.85;;
75634;SDS011;64227;48.724;9.104;2022-12-08T14:47:39;4.00;;;2.35;;
75634;SDS011;64227;48.724;9.104;2022-12-08T14:53:00;3.25;;;1.92;;
75634;SDS011;64227;48.724;9.104;2022-12-08T14:55:27;2.58;;;1.80;;
75634;SDS011;64227;48.724;9.104;2022-12-08T14:57:53;3.92;;;2.35;;
75634;SDS011;64227;48.724;9.104;2022-12-08T15:00:19;2.85;;;1.67;;
75634;SDS011;64227;48.724;9.104;2022-12-08T15:02:45;2.42;;;1.38;;
75634;SDS011;64227;48.724;9.104;2022-12-08T15:05:12;2.03;;;1.35;;
75634;SDS011;64227;48.724;9.104;2022-12-08T15:10:19;2.70;;;1.83;;
75634;SDS011;64227;48.724;9.104;2022-12-08T15:13:19;3.20;;;1.60;;
75634;SDS011;64227;48.724;9.104;2022-12-08T15:18:17;2.22;;;1.50;;
75634;SDS011;64227;48.724;9.104;2022-12-08T15:20:49;2.08;;;1.30;;
75634;SDS011;64227;48.724;9.104;2022-12-08T15:25:57;2.85;;;1.92;;
75634;SDS011;64227;48.724;9.104;2022-12-08T15:28:24;2.90;;;1.80;;
75634;SDS011;64227;48.724;9.104;2022-12-08T15:30:53;3.55;;;2.20;;
75634;SDS011;64227;48.724;9.104;2022-12-08T15:33:19;4.18;;;1.77;;
75634;SDS011;64227;48.724;9.104;2022-12-08T15:35:46;2.35;;;1.70;;
75634;SDS011;64227;48.724;9.104;2022-12-08T15:38:16;3.40;;;1.80;;
75634;SDS011;64227;48.724;9.104;2022-12-08T15:40:44;3.30;;;1.88;;
75634;SDS011;64227;48.724;9.104;2022-12-08T15:43:09;2.95;;;1.55;;
75634;SDS011;64227;48.724;9.104;2022-12-08T15:45:35;5.15;;;2.10;;
75634;SDS011;64227;48.724;9.104;2022-12-08T15:48:00;5.47;;;2.50;;
75634;SDS011;64227;48.724;9.104;2022-12-08T15:50:26;4.80;;;2.50;;
75634;SDS011;64227;48.724;9.104;2022-12-08T15:52:51;2.30;;;1.88;;
75634;SDS011;64227;48.724;9.104;2022-12-08T15:55:19;3.45;;;1.85;;
75634;SDS011;64227;48.724;9.104;2022-12-08T15:57:46;3.15;;;1.83;;
75634;SDS011;64227;48.724;9.104;2022-12-08T16:02:51;3.05;;;1.80;;
75634;SDS011;64227;48.724;9.104;2022-12-08T16:05:16;2.65;;;1.65;;
75634;SDS011;64227;48.724;9.104;2022-12-08T16:07:42;4.10;;;2.80;;
75634;SDS011;64227;48.724;9.104;2022-12-08T16:10:18;2.72;;;1.52;;
75634;SDS011;64227;48.724;9.104;2022-12-08T16:12:45;3.22;;;1.73;;
75634;SDS011;64227;48.724;9.104;2022-12-08T16:15:29;4.20;;;2.22;;
75634;SDS011;64227;48.724;9.104;2022-12-08T16:17:55;3.67;;;1.92;;
75634;SDS011;64227;48.724;9.104;2022-12-08T16:20:21;3.47;;;1.70;;
75634;SDS011;64227;48.724;9.104;2022-12-08T16:22:47;3.33;;;2.03;;
75634;SDS011;64227;48.724;9.104;2022-12-08T16:25:13;3.55;;;2.20;;
75634;SDS011;64227;48.724;9.104;2022-12-08T16:27:39;2.78;;;2.22;;
75634;SDS011;64227;48.724;9.104;2022-12-08T16:30:05;3.72;;;1.75;;
75634;SDS011;64227;48.724;9.104;2022-12-08T16:32:36;2.40;;;1.70;;
75634;SDS011;64227;48.724;9.104;2022-12-08T16:35:02;2.53;;;1.58;;
75634;SDS011;64227;48.724;9.104;2022-12-08T16:37:27;2.88;;;1.83;;
75634;SDS011;64227;48.724;9.104;2022-12-08T16:39:53;2.50;;;1.73;;
75634;SDS011;64227;48.724;9.104;2022-12-08T16:42:22;3.47;;;2.00;;
75634;SDS011;64227;48.724;9.104;2022-12-08T16:45:17;3.72;;;2.58;;